sensor_id;sensor_type;location;lat;lon;timestamp;P1;durP1;ratioP1;P2;durP2;ratioP2
46036;SDS011;31769;49.304;8.428;2023-05-07T02:03:47;10.27;;;6.70;;
46036;SDS011;31769;49.304;8.428;2023-05-07T02:06:55;6.32;;;5.72;;
46036;SDS011;31769;49.304;8.428;2023-05-07T02:09:56;7.10;;;6.00;;
46036;SDS011;31769;49.304;8.428;2023-05-07T02:12:57;6.95;;;6.20;;
46036;SDS011;31769;49.304;8.428;2023-05-07T02:15:58;8.15;;;6.75;;
46036;SDS011;31769;49.304;8.428;2023-05-07T02:19:00;6.35;;;5.70;;
46036;SDS011;31769;49.304;8.428;2023-05-07T02:22:00;7.45;;;6.45;;
46036;SDS011;31769;49.304;8.428;2023-05-07T02:25:04;7.13;;;6.10;;
46036;SDS011;31769;49.304;8.428;2023-05-07T02:28:05;6.32;;;5.78;;
46036;SDS011;31769;49.304;8.428;2023-05-07T02:31:15;12.02;;;6.35;;
46036;SDS011;31769;49.304;8.428;2023-05-07T02:34:16;8.68;;;6.47;;
46036;SDS011;31769;49.304;8.428;2023-05-07T02:37:17;6.65;;;5.63;;
46036;SDS011;31769;49.304;8.428;2023-05-07T02:40:18;6.25;;;5.65;;
46036;SDS011;31769;49.304;8.428;2023-05-07T02:43:19;6.20;;;5.63;;
46036;SDS011;31769;49.304;8.428;2023-05-07T02:46:22;6.30;;;5.70;;
46036;SDS011;31769;49.304;8.428;2023-05-07T02:49:30;7.95;;;5.88;;
46036;SDS011;31769;49.304;8.428;2023-05-07T02:52:32;6.90;;;5.95;;
46036;SDS011;31769;49.304;8.428;2023-05-07T02:55:32;8.27;;;5.90;;
46036;SDS011;31769;49.304;8.428;2023-05-07T02:58:33;7.93;;;6.18;;
46036;SDS011;31769;49.304;8.428;2023-05-07T03:01:35;7.53;;;5.40;;
46036;SDS011;31769;49.304;8.428;2023-05-07T03:04:39;6.28;;;5.68;;
46036;SDS011;31769;49.304;8.428;2023-05-07T03:07:40;6.35;;;5.50;;
46036;SDS011;31769;49.304;8.428;2023-05-07T03:10:44;7.07;;;5.70;;
46036;SDS011;31769;49.304;8.428;2023-05-07T03:13:45;5.80;;;5.15;;
46036;SDS011;31769;49.304;8.428;2023-05-07T03:16:46;5.80;;;5.30;;
46036;SDS011;31769;49.304;8.428;2023-05-07T03:19:46;6.32;;;5.72;;
46036;SDS011;31769;49.304;8.428;2023-05-07T03:22:48;7.78;;;5.95;;
46036;SDS011;31769;49.304;8.428;2023-05-07T03:25:48;5.53;;;4.85;;
46036;SDS011;31769;49.304;8.428;2023-05-07T03:28:49;8.00;;;5.40;;
46036;SDS011;31769;49.304;8.428;2023-05-07T03:31:51;7.88;;;5.82;;
46036;SDS011;31769;49.304;8.428;2023-05-07T03:34:52;6.32;;;5.70;;
46036;SDS011;31769;49.304;8.428;2023-05-07T03:37:52;7.07;;;4.95;;
46036;SDS011;31769;49.304;8.428;2023-05-07T03:40:55;9.48;;;5.55;;
46036;SDS011;31769;49.304;8.428;2023-05-07T03:43:56;6.70;;;5.78;;
46036;SDS011;31769;49.304;8.428;2023-05-07T03:46:56;5.85;;;5.25;;
46036;SDS011;31769;49.304;8.428;2023-05-07T03:49:57;6.95;;;5.40;;
46036;SDS011;31769;49.304;8.428;2023-05-07T03:52:59;6.03;;;5.43;;
46036;SDS011;31769;49.304;8.428;2023-05-07T03:56:00;5.13;;;4.60;;
46036;SDS011;31769;49.304;8.428;2023-05-07T03:59:03;7.38;;;5.80;;
46036;SDS011;31769;49.304;8.428;2023-05-07T04:02:07;6.72;;;5.18;;
46036;SDS011;31769;49.304;8.428;2023-05-07T04:05:08;8.32;;;5.15;;
46036;SDS011;31769;49.304;8.428;2023-05-07T04:08:12;8.60;;;5.28;;
46036;SDS011;31769;49.304;8.428;2023-05-07T04:11:16;8.85;;;4.95;;
46036;SDS011;31769;49.304;8.428;2023-05-07T04:14:17;6.88;;;5.20;;
46036;SDS011;31769;49.304;8.428;2023-05-07T04:17:18;5.90;;;5.00;;
46036;SDS011;31769;49.304;8.428;2023-05-07T04:20:19;6.03;;;5.40;;
46036;SDS011;31769;49.304;8.428;2023-05-07T04:23:25;6.28;;;5.50;;
46036;SDS011;31769;49.304;8.428;2023-05-07T04:26:27;6.97;;;5.40;;
46036;SDS011;31769;49.304;8.428;2023-05-07T04:29:28;6.30;;;5.57;;
46036;SDS011;31769;49.304;8.428;2023-05-07T04:32:29;6.45;;;5.07;;
46036;SDS011;31769;49.304;8.428;2023-05-07T04:35:30;6.85;;;5.22;;
46036;SDS011;31769;49.304;8.428;2023-05-07T04:38:31;6.43;;;5.82;;
46036;SDS011;31769;49.304;8.428;2023-05-07T04:41:35;6.53;;;5.38;;
46036;SDS011;31769;49.304;8.428;2023-05-07T04:44:37;6.15;;;5.40;;
46036;SDS011;31769;49.304;8.428;2023-05-07T04:47:38;6.07;;;5.47;;
46036;SDS011;31769;49.304;8.428;2023-05-07T04:50:38;5.35;;;4.90;;
46036;SDS011;31769;49.304;8.428;2023-05-07T04:53:40;8.00;;;5.18;;
46036;SDS011;31769;49.304;8.428;2023-05-07T04:56:42;6.53;;;5.10;;
46036;SDS011;31769;49.304;8.428;2023-05-07T04:59:43;6.13;;;5.15;;
46036;SDS011;31769;49.304;8.428;2023-05-07T05:02:45;7.40;;;5.10;;
46036;SDS011;31769;49.304;8.428;2023-05-07T05:05:50;6.90;;;5.20;;
46036;SDS011;31769;49.304;8.428;2023-05-07T05:08:53;5.18;;;4.70;;
46036;SDS011;31769;49.304;8.428;2023-05-07T05:11:55;5.40;;;4.90;;
46036;SDS011;31769;49.304;8.428;2023-05-07T05:14:56;7.47;;;5.28;;
46036;SDS011;31769;49.304;8.428;2023-05-07T05:17:57;7.90;;;5.32;;
46036;SDS011;31769;49.304;8.428;2023-05-07T05:20:58;7.00;;;5.20;;
46036;SDS011;31769;49.304;8.428;2023-05-07T05:23:59;5.90;;;5.40;;
46036;SDS011;31769;49.304;8.428;2023-05-07T05:27:00;6.22;;;5.35;;
46036;SDS011;31769;49.304;8.428;2023-05-07T05:30:03;6.35;;;5.85;;
46036;SDS011;31769;49.304;8.428;2023-05-07T05:33:07;6.15;;;5.30;;
46036;SDS011;31769;49.304;8.428;2023-05-07T05:36:11;8.05;;;5.85;;
46036;SDS011;31769;49.304;8.428;2023-05-07T05:39:13;6.63;;;5.93;;
46036;SDS011;31769;49.304;8.428;2023-05-07T05:42:14;6.65;;;5.43;;
46036;SDS011;31769;49.304;8.428;2023-05-07T05:45:15;6.20;;;5.57;;
46036;SDS011;31769;49.304;8.428;2023-05-07T05:48:16;6.35;;;4.95;;
46036;SDS011;31769;49.304;8.428;2023-05-07T05:51:17;5.93;;;4.63;;
46036;SDS011;31769;49.304;8.428;2023-05-07T05:54:19;6.78;;;5.25;;
46036;SDS011;31769;49.304;8.428;2023-05-07T05:57:20;6.40;;;4.72;;
46036;SDS011;31769;49.304;8.428;2023-05-07T06:00:21;7.18;;;5.65;;
46036;SDS011;31769;49.304;8.428;2023-05-07T06:03:29;5.57;;;5.07;;
46036;SDS011;31769;49.304;8.428;2023-05-07T06:06:32;5.80;;;5.28;;
46036;SDS011;31769;49.304;8.428;2023-05-07T06:09:33;5.68;;;5.18;;
46036;SDS011;31769;49.304;8.428;2023-05-07T06:12:35;6.20;;;5.43;;
46036;SDS011;31769;49.304;8.428;2023-05-07T06:15:36;6.15;;;5.55;;
46036;SDS011;31769;49.304;8.428;2023-05-07T06:18:42;5.03;;;4.57;;
46036;SDS011;31769;49.304;8.428;2023-05-07T06:21:43;5.97;;;5.00;;
46036;SDS011;31769;49.304;8.428;2023-05-07T06:24:43;5.60;;;5.07;;
46036;SDS011;31769;49.304;8.428;2023-05-07T06:27:44;5.38;;;4.50;;
46036;SDS011;31769;49.304;8.428;2023-05-07T06:30:45;7.47;;;4.63;;
46036;SDS011;31769;49.304;8.428;2023-05-07T06:33:46;8.13;;;4.63;;
46036;SDS011;31769;49.304;8.428;2023-05-07T06:36:49;4.10;;;3.70;;
46036;SDS011;31769;49.304;8.428;2023-05-07T06:40:00;6.03;;;4.80;;
46036;SDS011;31769;49.304;8.428;2023-05-07T06:43:02;8.73;;;4.82;;
46036;SDS011;31769;49.304;8.428;2023-05-07T06:46:10;6.68;;;4.78;;
46036;SDS011;31769;49.304;8.428;2023-05-07T06:49:12;7.20;;;4.43;;
46036;SDS011;31769;49.304;8.428;2023-05-07T06:52:13;4.10;;;3.70;;
46036;SDS011;31769;49.304;8.428;2023-05-07T06:55:14;4.80;;;4.35;;
46036;SDS011;31769;49.304;8.428;2023-05-07T06:58:15;8.10;;;5.10;;
46036;SDS011;31769;49.304;8.428;2023-05-07T07:01:16;4.13;;;3.40;;
46036;SDS011;31769;49.304;8.428;2023-05-07T07:04:18;3.47;;;3.17;;
46036;SDS011;31769;49.304;8.428;2023-05-07T07:07:24;14.02;;;7.53;;
46036;SDS011;31769;49.304;8.428;2023-05-07T07:10:25;7.53;;;5.47;;
46036;SDS011;31769;49.304;8.428;2023-05-07T07:13:27;4.38;;;3.50;;
46036;SDS011;31769;49.304;8.428;2023-05-07T07:16:28;4.65;;;3.35;;
46036;SDS011;31769;49.304;8.428;2023-05-07T07:19:28;9.55;;;8.55;;
46036;SDS011;31769;49.304;8.428;2023-05-07T07:22:30;14.20;;;12.77;;
46036;SDS011;31769;49.304;8.428;2023-05-07T07:25:32;4.50;;;4.15;;
46036;SDS011;31769;49.304;8.428;2023-05-07T07:28:32;9.02;;;7.13;;
46036;SDS011;31769;49.304;8.428;2023-05-07T07:31:33;3.72;;;3.17;;
46036;SDS011;31769;49.304;8.428;2023-05-07T07:34:34;4.82;;;3.55;;
46036;SDS011;31769;49.304;8.428;2023-05-07T07:37:36;3.80;;;3.40;;
46036;SDS011;31769;49.304;8.428;2023-05-07T07:40:37;2.75;;;2.58;;
46036;SDS011;31769;49.304;8.428;2023-05-07T07:43:39;11.93;;;9.57;;
46036;SDS011;31769;49.304;8.428;2023-05-07T07:46:40;9.35;;;7.72;;
46036;SDS011;31769;49.304;8.428;2023-05-07T07:49:41;4.00;;;3.60;;
46036;SDS011;31769;49.304;8.428;2023-05-07T07:52:44;2.72;;;2.25;;
46036;SDS011;31769;49.304;8.428;2023-05-07T07:55:47;3.72;;;2.15;;
46036;SDS011;31769;49.304;8.428;2023-05-07T07:58:51;2.78;;;2.38;;
46036;SDS011;31769;49.304;8.428;2023-05-07T08:01:53;14.32;;;12.23;;
46036;SDS011;31769;49.304;8.428;2023-05-07T08:04:58;8.60;;;4.20;;
46036;SDS011;31769;49.304;8.428;2023-05-07T08:07:59;6.47;;;3.53;;
46036;SDS011;31769;49.304;8.428;2023-05-07T08:11:04;3.40;;;3.10;;
46036;SDS011;31769;49.304;8.428;2023-05-07T08:14:07;4.07;;;2.60;;
46036;SDS011;31769;49.304;8.428;2023-05-07T08:17:08;3.08;;;2.30;;
46036;SDS011;31769;49.304;8.428;2023-05-07T08:20:11;3.90;;;3.45;;
46036;SDS011;31769;49.304;8.428;2023-05-07T08:23:12;2.60;;;2.40;;
46036;SDS011;31769;49.304;8.428;2023-05-07T08:26:14;4.53;;;3.78;;
46036;SDS011;31769;49.304;8.428;2023-05-07T08:29:15;4.75;;;4.30;;
46036;SDS011;31769;49.304;8.428;2023-05-07T08:32:17;7.03;;;5.25;;
46036;SDS011;31769;49.304;8.428;2023-05-07T08:35:18;5.53;;;3.90;;
46036;SDS011;31769;49.304;8.428;2023-05-07T08:38:19;4.95;;;2.30;;
46036;SDS011;31769;49.304;8.428;2023-05-07T08:41:20;3.42;;;1.60;;
46036;SDS011;31769;49.304;8.428;2023-05-07T08:44:21;4.28;;;2.17;;
46036;SDS011;31769;49.304;8.428;2023-05-07T08:47:26;4.60;;;1.95;;
46036;SDS011;31769;49.304;8.428;2023-05-07T08:50:35;7.60;;;6.32;;
46036;SDS011;31769;49.304;8.428;2023-05-07T08:53:38;9.75;;;6.47;;
46036;SDS011;31769;49.304;8.428;2023-05-07T08:56:41;2.55;;;2.20;;
46036;SDS011;31769;49.304;8.428;2023-05-07T08:59:43;2.58;;;2.30;;
46036;SDS011;31769;49.304;8.428;2023-05-07T09:02:45;2.83;;;1.90;;
46036;SDS011;31769;49.304;8.428;2023-05-07T09:05:46;4.25;;;2.50;;
46036;SDS011;31769;49.304;8.428;2023-05-07T09:08:53;3.13;;;2.22;;
46036;SDS011;31769;49.304;8.428;2023-05-07T09:11:58;3.10;;;2.42;;
46036;SDS011;31769;49.304;8.428;2023-05-07T09:15:01;2.15;;;1.98;;
46036;SDS011;31769;49.304;8.428;2023-05-07T09:18:03;3.92;;;2.20;;
46036;SDS011;31769;49.304;8.428;2023-05-07T09:21:06;2.55;;;2.35;;
46036;SDS011;31769;49.304;8.428;2023-05-07T09:24:10;5.00;;;2.30;;
46036;SDS011;31769;49.304;8.428;2023-05-07T09:27:14;2.67;;;2.20;;
46036;SDS011;31769;49.304;8.428;2023-05-07T09:30:18;3.22;;;2.20;;
46036;SDS011;31769;49.304;8.428;2023-05-07T09:33:18;2.72;;;1.95;;
46036;SDS011;31769;49.304;8.428;2023-05-07T09:36:23;3.08;;;2.17;;
46036;SDS011;31769;49.304;8.428;2023-05-07T09:39:24;5.35;;;2.40;;
46036;SDS011;31769;49.304;8.428;2023-05-07T09:42:38;3.65;;;2.45;;
46036;SDS011;31769;49.304;8.428;2023-05-07T09:45:39;23.67;;;19.40;;
46036;SDS011;31769;49.304;8.428;2023-05-07T09:48:42;4.28;;;2.90;;
46036;SDS011;31769;49.304;8.428;2023-05-07T09:51:49;9.43;;;2.00;;
46036;SDS011;31769;49.304;8.428;2023-05-07T09:54:52;1.98;;;1.83;;
46036;SDS011;31769;49.304;8.428;2023-05-07T10:01:01;2.75;;;1.63;;
46036;SDS011;31769;49.304;8.428;2023-05-07T10:04:03;3.22;;;1.50;;
46036;SDS011;31769;49.304;8.428;2023-05-07T10:07:07;3.17;;;2.88;;
46036;SDS011;31769;49.304;8.428;2023-05-07T10:10:10;3.83;;;3.42;;
46036;SDS011;31769;49.304;8.428;2023-05-07T10:13:15;3.72;;;1.90;;
46036;SDS011;31769;49.304;8.428;2023-05-07T10:16:21;3.80;;;1.80;;
46036;SDS011;31769;49.304;8.428;2023-05-07T10:19:23;4.60;;;1.92;;
46036;SDS011;31769;49.304;8.428;2023-05-07T10:22:27;1.58;;;1.48;;
46036;SDS011;31769;49.304;8.428;2023-05-07T10:25:34;1.70;;;1.60;;
46036;SDS011;31769;49.304;8.428;2023-05-07T10:28:45;2.65;;;1.52;;
46036;SDS011;31769;49.304;8.428;2023-05-07T10:31:55;4.68;;;1.63;;
46036;SDS011;31769;49.304;8.428;2023-05-07T10:35:29;2.47;;;1.73;;
46036;SDS011;31769;49.304;8.428;2023-05-07T10:38:33;3.78;;;1.88;;
46036;SDS011;31769;49.304;8.428;2023-05-07T10:41:35;2.65;;;1.70;;
46036;SDS011;31769;49.304;8.428;2023-05-07T10:44:37;2.25;;;1.65;;
46036;SDS011;31769;49.304;8.428;2023-05-07T10:48:24;2.88;;;1.90;;
46036;SDS011;31769;49.304;8.428;2023-05-07T10:51:22;2.60;;;1.30;;
46036;SDS011;31769;49.304;8.428;2023-05-07T10:54:34;2.58;;;2.28;;
46036;SDS011;31769;49.304;8.428;2023-05-07T10:57:40;4.18;;;1.90;;
46036;SDS011;31769;49.304;8.428;2023-05-07T11:00:57;1.38;;;1.27;;
46036;SDS011;31769;49.304;8.428;2023-05-07T11:04:14;1.90;;;1.60;;
46036;SDS011;31769;49.304;8.428;2023-05-07T11:07:24;1.60;;;1.40;;
46036;SDS011;31769;49.304;8.428;2023-05-07T11:13:57;3.38;;;2.53;;
46036;SDS011;31769;49.304;8.428;2023-05-07T11:17:11;2.60;;;1.60;;
46036;SDS011;31769;49.304;8.428;2023-05-07T11:20:13;5.32;;;1.70;;
46036;SDS011;31769;49.304;8.428;2023-05-07T11:29:57;4.57;;;1.42;;
46036;SDS011;31769;49.304;8.428;2023-05-07T11:32:58;5.72;;;1.20;;
46036;SDS011;31769;49.304;8.428;2023-05-07T11:35:59;2.92;;;1.35;;
46036;SDS011;31769;49.304;8.428;2023-05-07T11:39:12;1.52;;;1.42;;
46036;SDS011;31769;49.304;8.428;2023-05-07T11:42:37;3.88;;;1.25;;
46036;SDS011;31769;49.304;8.428;2023-05-07T11:45:38;1.73;;;1.50;;
46036;SDS011;31769;49.304;8.428;2023-05-07T11:48:39;2.28;;;1.30;;
46036;SDS011;31769;49.304;8.428;2023-05-07T11:51:40;1.02;;;0.93;;
46036;SDS011;31769;49.304;8.428;2023-05-07T11:54:48;2.17;;;1.00;;
46036;SDS011;31769;49.304;8.428;2023-05-07T11:57:55;2.00;;;0.70;;
46036;SDS011;31769;49.304;8.428;2023-05-07T12:00:56;3.80;;;0.90;;
46036;SDS011;31769;49.304;8.428;2023-05-07T12:03:56;0.90;;;0.77;;
46036;SDS011;31769;49.304;8.428;2023-05-07T12:06:58;1.48;;;0.60;;
46036;SDS011;31769;49.304;8.428;2023-05-07T12:09:58;1.20;;;0.70;;
46036;SDS011;31769;49.304;8.428;2023-05-07T12:12:59;2.20;;;0.65;;
46036;SDS011;31769;49.304;8.428;2023-05-07T12:16:00;1.10;;;0.38;;
46036;SDS011;31769;49.304;8.428;2023-05-07T12:19:03;8.93;;;0.70;;
46036;SDS011;31769;49.304;8.428;2023-05-07T12:22:04;1.65;;;0.40;;
46036;SDS011;31769;49.304;8.428;2023-05-07T12:25:07;2.35;;;0.60;;
46036;SDS011;31769;49.304;8.428;2023-05-07T12:28:08;1.65;;;0.52;;
46036;SDS011;31769;49.304;8.428;2023-05-07T12:31:14;0.85;;;0.60;;
46036;SDS011;31769;49.304;8.428;2023-05-07T12:34:16;1.73;;;0.52;;
46036;SDS011;31769;49.304;8.428;2023-05-07T12:37:16;2.65;;;0.63;;
46036;SDS011;31769;49.304;8.428;2023-05-07T12:40:34;3.20;;;1.08;;
46036;SDS011;31769;49.304;8.428;2023-05-07T12:43:40;2.22;;;0.28;;
46036;SDS011;31769;49.304;8.428;2023-05-07T12:46:44;0.60;;;0.20;;
46036;SDS011;31769;49.304;8.428;2023-05-07T12:49:46;0.32;;;0.30;;
46036;SDS011;31769;49.304;8.428;2023-05-07T12:52:47;1.23;;;0.38;;
46036;SDS011;31769;49.304;8.428;2023-05-07T12:55:49;0.63;;;0.40;;
46036;SDS011;31769;49.304;8.428;2023-05-07T12:58:52;3.13;;;0.57;;
46036;SDS011;31769;49.304;8.428;2023-05-07T13:01:58;0.82;;;0.40;;
46036;SDS011;31769;49.304;8.428;2023-05-07T13:04:58;2.05;;;0.50;;
46036;SDS011;31769;49.304;8.428;2023-05-07T13:07:59;1.65;;;0.38;;
46036;SDS011;31769;49.304;8.428;2023-05-07T13:11:01;2.55;;;1.00;;
46036;SDS011;31769;49.304;8.428;2023-05-07T13:14:03;3.65;;;0.40;;
46036;SDS011;31769;49.304;8.428;2023-05-07T13:17:04;1.02;;;0.35;;
46036;SDS011;31769;49.304;8.428;2023-05-07T13:20:05;1.10;;;0.50;;
46036;SDS011;31769;49.304;8.428;2023-05-07T13:23:06;1.30;;;0.60;;
46036;SDS011;31769;49.304;8.428;2023-05-07T13:26:07;1.05;;;0.60;;
46036;SDS011;31769;49.304;8.428;2023-05-07T13:29:07;1.58;;;0.35;;
46036;SDS011;31769;49.304;8.428;2023-05-07T13:32:08;0.45;;;0.38;;
46036;SDS011;31769;49.304;8.428;2023-05-07T13:35:09;0.98;;;0.50;;
46036;SDS011;31769;49.304;8.428;2023-05-07T13:38:09;0.80;;;0.70;;
46036;SDS011;31769;49.304;8.428;2023-05-07T13:41:10;2.25;;;0.70;;
46036;SDS011;31769;49.304;8.428;2023-05-07T13:44:12;0.50;;;0.50;;
46036;SDS011;31769;49.304;8.428;2023-05-07T13:47:13;1.13;;;0.70;;
46036;SDS011;31769;49.304;8.428;2023-05-07T13:50:14;1.60;;;0.60;;
46036;SDS011;31769;49.304;8.428;2023-05-07T13:53:15;2.40;;;0.70;;
46036;SDS011;31769;49.304;8.428;2023-05-07T13:56:18;3.13;;;0.80;;
46036;SDS011;31769;49.304;8.428;2023-05-07T13:59:20;0.70;;;0.57;;
46036;SDS011;31769;49.304;8.428;2023-05-07T14:02:20;10.07;;;9.18;;
46036;SDS011;31769;49.304;8.428;2023-05-07T14:05:21;4.13;;;1.40;;
46036;SDS011;31769;49.304;8.428;2023-05-07T14:08:27;2.05;;;1.33;;
46036;SDS011;31769;49.304;8.428;2023-05-07T14:11:28;1.48;;;1.45;;
46036;SDS011;31769;49.304;8.428;2023-05-07T14:14:29;5.28;;;2.22;;
46036;SDS011;31769;49.304;8.428;2023-05-07T14:17:30;40.00;;;7.45;;
46036;SDS011;31769;49.304;8.428;2023-05-07T14:20:30;6.00;;;4.68;;
46036;SDS011;31769;49.304;8.428;2023-05-07T14:23:32;10.13;;;6.95;;
46036;SDS011;31769;49.304;8.428;2023-05-07T14:26:32;74.47;;;9.60;;
46036;SDS011;31769;49.304;8.428;2023-05-07T14:29:33;5.55;;;4.43;;
46036;SDS011;31769;49.304;8.428;2023-05-07T14:32:35;20.48;;;15.35;;
46036;SDS011;31769;49.304;8.428;2023-05-07T14:35:36;16.33;;;8.25;;
46036;SDS011;31769;49.304;8.428;2023-05-07T14:38:37;11.27;;;6.53;;
46036;SDS011;31769;49.304;8.428;2023-05-07T14:41:38;5.63;;;3.85;;
46036;SDS011;31769;49.304;8.428;2023-05-07T14:44:38;8.05;;;5.82;;
46036;SDS011;31769;49.304;8.428;2023-05-07T14:47:41;5.63;;;4.70;;
46036;SDS011;31769;49.304;8.428;2023-05-07T14:50:42;12.68;;;8.77;;
46036;SDS011;31769;49.304;8.428;2023-05-07T14:53:43;10.60;;;5.53;;
46036;SDS011;31769;49.304;8.428;2023-05-07T14:56:43;9.82;;;7.07;;
46036;SDS011;31769;49.304;8.428;2023-05-07T14:59:44;8.13;;;5.85;;
46036;SDS011;31769;49.304;8.428;2023-05-07T15:02:45;13.90;;;7.18;;
46036;SDS011;31769;49.304;8.428;2023-05-07T15:05:46;11.38;;;6.40;;
46036;SDS011;31769;49.304;8.428;2023-05-07T15:08:47;8.70;;;7.13;;
46036;SDS011;31769;49.304;8.428;2023-05-07T15:11:48;10.90;;;9.10;;
46036;SDS011;31769;49.304;8.428;2023-05-07T15:14:49;10.27;;;7.90;;
46036;SDS011;31769;49.304;8.428;2023-05-07T15:17:49;11.48;;;8.38;;
46036;SDS011;31769;49.304;8.428;2023-05-07T15:20:50;10.02;;;7.28;;
46036;SDS011;31769;49.304;8.428;2023-05-07T15:23:51;8.18;;;6.88;;
46036;SDS011;31769;49.304;8.428;2023-05-07T15:26:52;10.05;;;7.30;;
46036;SDS011;31769;49.304;8.428;2023-05-07T15:29:52;9.88;;;7.70;;
46036;SDS011;31769;49.304;8.428;2023-05-07T15:32:53;6.78;;;5.13;;
46036;SDS011;31769;49.304;8.428;2023-05-07T15:35:54;7.43;;;5.40;;
46036;SDS011;31769;49.304;8.428;2023-05-07T15:38:58;4.38;;;3.95;;
46036;SDS011;31769;49.304;8.428;2023-05-07T15:41:59;5.10;;;4.45;;
46036;SDS011;31769;49.304;8.428;2023-05-07T15:45:01;8.48;;;5.63;;
46036;SDS011;31769;49.304;8.428;2023-05-07T15:48:02;5.93;;;5.07;;
46036;SDS011;31769;49.304;8.428;2023-05-07T15:51:02;5.07;;;4.55;;
46036;SDS011;31769;49.304;8.428;2023-05-07T15:54:04;3.90;;;3.60;;
46036;SDS011;31769;49.304;8.428;2023-05-07T15:57:05;5.22;;;3.67;;
46036;SDS011;31769;49.304;8.428;2023-05-07T16:00:06;20.23;;;16.90;;
46036;SDS011;31769;49.304;8.428;2023-05-07T16:03:15;8.93;;;5.80;;
46036;SDS011;31769;49.304;8.428;2023-05-07T16:06:17;5.55;;;3.35;;
46036;SDS011;31769;49.304;8.428;2023-05-07T16:09:18;10.65;;;8.57;;
46036;SDS011;31769;49.304;8.428;2023-05-07T16:12:19;2.78;;;2.58;;
46036;SDS011;31769;49.304;8.428;2023-05-07T16:15:20;4.30;;;2.30;;
46036;SDS011;31769;49.304;8.428;2023-05-07T16:18:21;5.82;;;1.95;;
46036;SDS011;31769;49.304;8.428;2023-05-07T16:21:21;4.75;;;2.92;;
46036;SDS011;31769;49.304;8.428;2023-05-07T16:24:22;3.63;;;2.60;;
46036;SDS011;31769;49.304;8.428;2023-05-07T16:27:23;4.70;;;3.30;;
46036;SDS011;31769;49.304;8.428;2023-05-07T16:30:23;3.00;;;2.40;;
46036;SDS011;31769;49.304;8.428;2023-05-07T16:33:24;2.03;;;1.90;;
46036;SDS011;31769;49.304;8.428;2023-05-07T16:36:26;10.70;;;9.45;;
46036;SDS011;31769;49.304;8.428;2023-05-07T16:39:28;18.65;;;13.52;;
46036;SDS011;31769;49.304;8.428;2023-05-07T16:42:28;4.82;;;2.50;;
46036;SDS011;31769;49.304;8.428;2023-05-07T16:45:29;3.72;;;2.03;;
46036;SDS011;31769;49.304;8.428;2023-05-07T16:48:30;4.45;;;2.38;;
46036;SDS011;31769;49.304;8.428;2023-05-07T16:51:32;5.28;;;2.60;;
46036;SDS011;31769;49.304;8.428;2023-05-07T16:54:34;2.67;;;2.20;;
46036;SDS011;31769;49.304;8.428;2023-05-07T16:57:35;4.65;;;2.50;;
46036;SDS011;31769;49.304;8.428;2023-05-07T17:00:36;5.13;;;2.47;;
46036;SDS011;31769;49.304;8.428;2023-05-07T17:03:38;3.22;;;2.40;;
46036;SDS011;31769;49.304;8.428;2023-05-07T17:06:38;4.35;;;3.00;;
46036;SDS011;31769;49.304;8.428;2023-05-07T17:09:39;3.15;;;2.63;;
46036;SDS011;31769;49.304;8.428;2023-05-07T17:12:40;2.92;;;2.72;;
46036;SDS011;31769;49.304;8.428;2023-05-07T17:15:41;7.38;;;2.83;;
46036;SDS011;31769;49.304;8.428;2023-05-07T17:18:44;5.10;;;3.20;;
46036;SDS011;31769;49.304;8.428;2023-05-07T17:21:44;7.63;;;3.92;;
46036;SDS011;31769;49.304;8.428;2023-05-07T17:24:45;10.65;;;7.53;;
46036;SDS011;31769;49.304;8.428;2023-05-07T17:27:45;5.80;;;3.95;;
46036;SDS011;31769;49.304;8.428;2023-05-07T17:30:47;4.32;;;3.10;;
46036;SDS011;31769;49.304;8.428;2023-05-07T17:33:47;5.10;;;3.20;;
46036;SDS011;31769;49.304;8.428;2023-05-07T17:36:48;4.30;;;3.53;;
46036;SDS011;31769;49.304;8.428;2023-05-07T17:39:49;4.30;;;3.90;;
46036;SDS011;31769;49.304;8.428;2023-05-07T17:42:51;8.13;;;5.10;;
46036;SDS011;31769;49.304;8.428;2023-05-07T17:45:52;7.55;;;4.55;;
46036;SDS011;31769;49.304;8.428;2023-05-07T17:48:53;4.78;;;4.30;;
46036;SDS011;31769;49.304;8.428;2023-05-07T17:51:54;7.55;;;5.30;;
46036;SDS011;31769;49.304;8.428;2023-05-07T17:54:58;6.22;;;5.25;;
46036;SDS011;31769;49.304;8.428;2023-05-07T17:57:59;18.30;;;15.70;;
46036;SDS011;31769;49.304;8.428;2023-05-07T18:01:01;14.13;;;9.70;;
46036;SDS011;31769;49.304;8.428;2023-05-07T18:04:02;7.43;;;6.07;;
46036;SDS011;31769;49.304;8.428;2023-05-07T18:07:03;9.60;;;5.88;;
46036;SDS011;31769;49.304;8.428;2023-05-07T18:10:03;5.72;;;5.30;;
46036;SDS011;31769;49.304;8.428;2023-05-07T18:13:04;7.57;;;5.45;;
46036;SDS011;31769;49.304;8.428;2023-05-07T18:16:05;6.28;;;5.75;;
46036;SDS011;31769;49.304;8.428;2023-05-07T18:19:06;7.10;;;6.40;;
46036;SDS011;31769;49.304;8.428;2023-05-07T18:22:07;7.47;;;6.63;;
46036;SDS011;31769;49.304;8.428;2023-05-07T18:25:08;7.72;;;6.45;;
46036;SDS011;31769;49.304;8.428;2023-05-07T18:28:09;12.18;;;9.93;;
46036;SDS011;31769;49.304;8.428;2023-05-07T18:31:10;11.32;;;8.32;;
46036;SDS011;31769;49.304;8.428;2023-05-07T18:34:10;9.57;;;8.15;;
46036;SDS011;31769;49.304;8.428;2023-05-07T18:37:11;9.05;;;8.07;;
46036;SDS011;31769;49.304;8.428;2023-05-07T18:40:12;11.90;;;7.85;;
46036;SDS011;31769;49.304;8.428;2023-05-07T18:43:13;9.07;;;7.82;;
46036;SDS011;31769;49.304;8.428;2023-05-07T18:46:13;12.20;;;8.73;;
46036;SDS011;31769;49.304;8.428;2023-05-07T18:49:14;14.30;;;11.75;;
46036;SDS011;31769;49.304;8.428;2023-05-07T18:52:16;14.30;;;12.40;;
46036;SDS011;31769;49.304;8.428;2023-05-07T18:55:17;13.65;;;10.07;;
46036;SDS011;31769;49.304;8.428;2023-05-07T18:58:18;15.43;;;10.07;;
46036;SDS011;31769;49.304;8.428;2023-05-07T19:01:18;10.02;;;8.75;;
46036;SDS011;31769;49.304;8.428;2023-05-07T19:04:19;11.15;;;8.35;;
46036;SDS011;31769;49.304;8.428;2023-05-07T19:07:20;12.00;;;9.52;;
46036;SDS011;31769;49.304;8.428;2023-05-07T19:10:21;12.75;;;10.95;;
46036;SDS011;31769;49.304;8.428;2023-05-07T19:13:21;11.98;;;10.07;;
46036;SDS011;31769;49.304;8.428;2023-05-07T19:16:24;11.82;;;10.30;;
46036;SDS011;31769;49.304;8.428;2023-05-07T19:19:25;11.05;;;10.15;;
46036;SDS011;31769;49.304;8.428;2023-05-07T19:22:26;11.90;;;10.70;;
46036;SDS011;31769;49.304;8.428;2023-05-07T19:25:27;10.80;;;9.82;;
46036;SDS011;31769;49.304;8.428;2023-05-07T19:28:27;11.02;;;9.93;;
46036;SDS011;31769;49.304;8.428;2023-05-07T19:31:32;12.00;;;10.73;;
46036;SDS011;31769;49.304;8.428;2023-05-07T19:37:37;11.80;;;10.07;;
46036;SDS011;31769;49.304;8.428;2023-05-07T19:40:37;12.32;;;10.68;;
46036;SDS011;31769;49.304;8.428;2023-05-07T19:43:38;11.75;;;10.63;;
46036;SDS011;31769;49.304;8.428;2023-05-07T19:46:40;11.52;;;10.35;;
46036;SDS011;31769;49.304;8.428;2023-05-07T19:49:44;13.27;;;11.13;;
46036;SDS011;31769;49.304;8.428;2023-05-07T19:52:44;16.98;;;15.18;;
46036;SDS011;31769;49.304;8.428;2023-05-07T19:55:45;15.00;;;13.30;;
46036;SDS011;31769;49.304;8.428;2023-05-07T19:58:46;14.52;;;13.10;;
46036;SDS011;31769;49.304;8.428;2023-05-07T20:01:47;18.70;;;15.98;;
46036;SDS011;31769;49.304;8.428;2023-05-07T20:04:48;18.50;;;16.38;;
46036;SDS011;31769;49.304;8.428;2023-05-07T20:07:48;21.27;;;19.17;;
46036;SDS011;31769;49.304;8.428;2023-05-07T20:10:49;19.50;;;16.10;;
46036;SDS011;31769;49.304;8.428;2023-05-07T20:13:50;17.80;;;16.00;;
46036;SDS011;31769;49.304;8.428;2023-05-07T20:16:51;18.33;;;16.42;;
46036;SDS011;31769;49.304;8.428;2023-05-07T20:19:53;18.77;;;16.98;;
46036;SDS011;31769;49.304;8.428;2023-05-07T20:22:53;15.15;;;13.27;;
46036;SDS011;31769;49.304;8.428;2023-05-07T20:25:54;14.90;;;13.38;;
46036;SDS011;31769;49.304;8.428;2023-05-07T20:28:56;14.43;;;12.43;;
46036;SDS011;31769;49.304;8.428;2023-05-07T20:31:56;10.63;;;9.52;;